Time;durP1;ratioP1;P1;durP2;ratioP2;P2;SDS_P1;SDS_P2;PMS_P1;PMS_P2;Temp;Humidity;BMP_temperature;BMP_pressure;BME280_temperature;BME280_humidity;BME280_pressure;Samples;Min_cycle;Max_cycle;Signal;HPM_P1;HPM_P2
2023/07/27 00:01:55;;;;;;;10.05;7.55;;;;;;;20.83;57.54;94355.69;5100968;28;20032;-74
2023/07/27 00:04:22;;;;;;;8.00;7.20;;;;;;;20.79;57.45;94360.78;5104955;28;20070;-76
2023/07/27 00:06:48;;;;;;;7.40;6.43;;;;;;;20.75;57.17;94357.50;5107311;28;20033;-76
2023/07/27 00:09:14;;;;;;;8.38;6.15;;;;;;;20.72;57.08;94366.91;5107600;28;20032;-77
2023/07/27 00:11:40;;;;;;;7.50;5.63;;;;;;;20.73;56.25;94359.31;5114218;27;20031;-76
2023/07/27 00:14:05;;;;;;;4.78;4.10;;;;;;;20.69;55.17;94362.34;5102902;28;20028;-75
2023/07/27 00:16:31;;;;;;;5.10;4.13;;;;;;;20.61;54.29;94367.00;5100854;28;20039;-76
2023/07/27 00:18:56;;;;;;;5.82;3.88;;;;;;;20.50;53.98;94365.00;5106569;28;20042;-75
2023/07/27 00:21:21;;;;;;;5.80;3.50;;;;;;;20.40;53.94;94358.19;5105321;28;20024;-75
2023/07/27 00:23:47;;;;;;;4.10;3.17;;;;;;;20.32;54.03;94352.38;5106663;28;20820;-75
2023/07/27 00:26:12;;;;;;;5.38;3.40;;;;;;;20.30;53.71;94354.94;5088703;28;20035;-75
2023/07/27 00:28:38;;;;;;;4.97;3.28;;;;;;;20.29;53.78;94358.22;5102592;28;20031;-76
2023/07/27 00:31:03;;;;;;;4.88;3.53;;;;;;;20.21;53.89;94351.69;5093180;28;20095;-76
2023/07/27 00:33:29;;;;;;;5.03;3.38;;;;;;;20.21;53.81;94346.88;5097223;28;20049;-76
2023/07/27 00:35:58;;;;;;;4.00;2.90;;;;;;;20.19;54.07;94357.03;5099831;28;20091;-76
2023/07/27 00:38:24;;;;;;;4.25;2.83;;;;;;;20.21;54.05;94357.25;5091841;28;20661;-76
2023/07/27 00:40:49;;;;;;;4.85;2.90;;;;;;;20.18;53.85;94353.47;5102463;28;20082;-76
2023/07/27 00:43:15;;;;;;;4.63;3.03;;;;;;;20.17;53.55;94358.28;5099625;28;20051;-76
2023/07/27 00:45:40;;;;;;;3.35;2.75;;;;;;;20.11;53.62;94362.38;5089579;28;20043;-76
2023/07/27 00:48:08;;;;;;;5.90;2.80;;;;;;;20.07;53.57;94367.44;5094998;28;20032;-76
2023/07/27 00:50:35;;;;;;;4.85;2.53;;;;;;;20.01;53.28;94366.72;5104132;28;20031;-77
2023/07/27 00:53:03;;;;;;;7.68;2.42;;;;;;;19.93;53.18;94363.72;5106223;28;20478;-76
2023/07/27 00:55:29;;;;;;;5.72;2.17;;;;;;;19.90;52.99;94359.16;5105427;28;20035;-75
2023/07/27 00:57:54;;;;;;;2.90;2.00;;;;;;;19.91;52.79;94371.84;5105016;28;20036;-76
2023/07/27 01:00:20;;;;;;;2.92;2.05;;;;;;;19.84;52.63;94375.13;5122957;27;21373;-77
2023/07/27 01:02:46;;;;;;;4.15;2.30;;;;;;;19.79;53.20;94376.69;5087745;28;20107;-76
2023/07/27 01:05:11;;;;;;;2.72;1.98;;;;;;;19.70;53.10;94365.78;5088183;28;20032;-77
2023/07/27 01:07:46;;;;;;;2.78;1.90;;;;;;;19.70;53.47;94382.53;5097515;28;20117;-76
2023/07/27 01:10:12;;;;;;;3.05;2.00;;;;;;;19.65;53.74;94374.94;5107655;27;20036;-76
2023/07/27 01:12:49;;;;;;;3.47;1.83;;;;;;;19.60;53.84;94372.91;5106414;28;20060;-76
2023/07/27 01:15:17;;;;;;;3.80;2.10;;;;;;;19.58;53.94;94372.63;5104837;28;20046;-76
2023/07/27 01:18:01;;;;;;;2.85;2.15;;;;;;;19.47;54.42;94375.44;5102734;28;20134;-75
2023/07/27 01:20:32;;;;;;;4.53;1.85;;;;;;;19.49;54.36;94372.91;5086866;28;20074;-76
2023/07/27 01:23:16;;;;;;;4.90;2.45;;;;;;;19.37;55.16;94370.13;5089435;28;20020;-76
2023/07/27 01:26:01;;;;;;;3.53;2.33;;;;;;;19.35;54.98;94369.88;5088553;28;20036;-75
2023/07/27 01:28:42;;;;;;;2.40;1.92;;;;;;;19.37;54.45;94361.00;5090096;28;20159;-76
2023/07/27 01:31:18;;;;;;;2.47;2.17;;;;;;;19.29;54.90;94371.91;5102417;28;20076;-76
2023/07/27 01:33:46;;;;;;;3.75;2.20;;;;;;;19.31;54.89;94380.50;5097342;28;20483;-77
2023/07/27 01:36:21;;;;;;;3.33;2.22;;;;;;;19.24;55.12;94369.88;5098796;28;20069;-76
2023/07/27 01:38:48;;;;;;;4.38;2.70;;;;;;;19.28;54.68;94380.78;5104557;28;20123;-77
2023/07/27 01:41:15;;;;;;;4.68;2.25;;;;;;;19.18;54.94;94377.50;5104694;28;20031;-77
2023/07/27 01:43:42;;;;;;;3.13;2.10;;;;;;;19.08;55.25;94371.41;5103458;27;20124;-76
2023/07/27 01:46:09;;;;;;;3.58;2.50;;;;;;;19.02;55.23;94376.22;5090144;28;20030;-76
2023/07/27 01:48:37;;;;;;;2.65;2.30;;;;;;;19.01;55.39;94377.47;5114595;27;20502;-77
2023/07/27 01:51:03;;;;;;;4.65;2.55;;;;;;;18.97;55.43;94382.53;5104110;28;20102;-77
2023/07/27 01:53:30;;;;;;;3.78;2.50;;;;;;;18.92;55.92;94377.72;5100301;28;20477;-77
2023/07/27 01:55:56;;;;;;;3.55;2.67;;;;;;;18.75;56.26;94365.78;5103170;28;20493;-76
2023/07/27 01:58:22;;;;;;;3.53;2.65;;;;;;;18.82;56.30;94388.34;5103934;28;20040;-77
2023/07/27 02:00:48;;;;;;;3.17;2.72;;;;;;;18.88;55.93;94395.97;5104277;28;20039;-76
2023/07/27 02:03:15;;;;;;;3.20;2.85;;;;;;;18.89;56.13;94398.22;5100630;28;20039;-76
2023/07/27 02:05:40;;;;;;;4.07;2.85;;;;;;;18.93;55.89;94395.22;5105029;28;20519;-77
2023/07/27 02:08:05;;;;;;;3.60;3.20;;;;;;;18.91;55.87;94411.66;5104384;28;20035;-76
2023/07/27 02:10:32;;;;;;;3.47;3.17;;;;;;;18.95;56.20;94421.28;5106632;28;20122;-77
2023/07/27 02:13:20;;;;;;;3.70;3.20;;;;;;;18.95;56.23;94415.72;5099250;28;20111;-76
2023/07/27 02:15:48;;;;;;;4.18;3.78;;;;;;;18.98;55.82;94427.84;5119030;27;20085;-77
2023/07/27 02:18:16;;;;;;;6.63;4.50;;;;;;;19.01;55.64;94424.06;5099786;28;20048;-77
2023/07/27 02:20:42;;;;;;;4.53;4.00;;;;;;;19.04;55.69;94432.19;5102326;28;20059;-77
2023/07/27 02:23:10;;;;;;;4.93;4.35;;;;;;;19.03;56.02;94438.25;5103963;28;20054;-77
2023/07/27 02:25:35;;;;;;;4.80;4.32;;;;;;;19.05;55.70;94436.50;5086626;28;20583;-77
2023/07/27 02:28:00;;;;;;;4.35;3.95;;;;;;;19.04;55.87;94443.34;5089761;28;20028;-77
2023/07/27 02:30:26;;;;;;;5.47;4.65;;;;;;;19.03;55.94;94443.81;5090126;28;20035;-77
2023/07/27 02:32:51;;;;;;;5.53;5.03;;;;;;;19.03;55.75;94455.72;5105337;28;20501;-77
2023/07/27 02:35:17;;;;;;;5.82;5.15;;;;;;;19.05;55.86;94450.41;5092268;28;20028;-76
2023/07/27 02:37:42;;;;;;;5.82;5.22;;;;;;;19.02;55.88;94451.41;5095035;28;20032;-76
2023/07/27 02:40:08;;;;;;;6.53;5.45;;;;;;;19.08;55.47;94445.84;5105830;28;20032;-77
2023/07/27 02:42:33;;;;;;;5.97;5.45;;;;;;;19.05;55.38;94452.44;5104539;28;20068;-77
2023/07/27 02:44:59;;;;;;;6.22;5.63;;;;;;;19.06;55.58;94465.88;5105705;28;20039;-76
2023/07/27 02:47:24;;;;;;;6.45;5.85;;;;;;;19.03;55.36;94464.06;5105588;28;20020;-77
2023/07/27 02:49:50;;;;;;;6.90;5.88;;;;;;;19.00;55.02;94467.13;5104526;28;20035;-76
2023/07/27 02:52:15;;;;;;;6.38;5.75;;;;;;;18.98;54.82;94469.63;5094743;28;20102;-76
2023/07/27 02:54:40;;;;;;;8.60;5.88;;;;;;;18.97;54.93;94474.44;5099110;28;20092;-76
2023/07/27 02:57:06;;;;;;;6.15;5.65;;;;;;;18.99;54.31;94474.72;5100075;28;20407;-76
2023/07/27 02:59:31;;;;;;;6.03;5.53;;;;;;;18.93;54.39;94470.41;5099435;28;20028;-75
2023/07/27 03:01:57;;;;;;;6.63;6.07;;;;;;;18.94;54.46;94471.91;5087724;28;20482;-76
2023/07/27 03:04:22;;;;;;;6.13;5.57;;;;;;;18.87;54.24;94475.97;5091931;28;20026;-77
2023/07/27 03:06:48;;;;;;;6.00;5.28;;;;;;;18.79;54.34;94486.03;5106323;28;20135;-76
2023/07/27 03:09:13;;;;;;;5.78;5.28;;;;;;;18.74;54.24;94489.56;5096255;28;20023;-76
2023/07/27 03:11:39;;;;;;;6.15;5.55;;;;;;;18.72;54.22;94487.28;5102345;28;20027;-76
2023/07/27 03:14:04;;;;;;;6.55;5.70;;;;;;;18.64;54.34;94480.66;5099148;28;20114;-76
2023/07/27 03:16:30;;;;;;;6.10;5.50;;;;;;;18.55;54.34;94494.78;5104591;28;20043;-75
2023/07/27 03:18:56;;;;;;;6.35;5.82;;;;;;;18.53;53.89;94503.66;5099033;28;20016;-76
2023/07/27 03:21:22;;;;;;;6.25;5.50;;;;;;;18.46;54.15;94492.97;5083992;28;20105;-77
2023/07/27 03:23:48;;;;;;;8.02;5.20;;;;;;;18.49;53.16;94494.00;5084517;28;20071;-76
2023/07/27 03:26:14;;;;;;;6.20;5.60;;;;;;;18.43;53.25;94493.97;5089593;28;20798;-78
2023/07/27 03:28:39;;;;;;;5.65;5.13;;;;;;;18.44;52.82;94497.53;5094709;28;20029;-78
2023/07/27 03:31:19;;;;;;;5.43;4.93;;;;;;;18.45;52.30;94499.03;5106214;28;20110;-77
2023/07/27 03:33:45;;;;;;;5.25;4.75;;;;;;;18.42;52.68;94498.03;5098062;28;20368;-78
2023/07/27 03:36:10;;;;;;;5.10;4.70;;;;;;;18.38;52.14;94497.50;5097173;28;20039;-78
2023/07/27 03:38:36;;;;;;;6.38;4.65;;;;;;;18.39;51.71;94504.56;5100416;28;20011;-78
2023/07/27 03:41:02;;;;;;;5.57;4.55;;;;;;;18.35;51.67;94508.84;5107584;28;20023;-77
2023/07/27 03:43:27;;;;;;;4.15;3.75;;;;;;;18.34;51.80;94515.69;5106255;28;20049;-77
2023/07/27 03:45:53;;;;;;;4.40;4.00;;;;;;;18.15;51.79;94504.97;5106514;28;20187;-77
2023/07/27 03:48:18;;;;;;;4.25;3.85;;;;;;;18.10;51.90;94527.19;5106812;28;20024;-76
2023/07/27 03:50:44;;;;;;;4.25;3.85;;;;;;;18.18;51.67;94528.22;5106191;28;20556;-76
2023/07/27 03:53:09;;;;;;;3.67;3.38;;;;;;;18.21;51.68;94519.66;5109381;28;20019;-76
2023/07/27 03:55:34;;;;;;;3.60;3.30;;;;;;;18.18;51.20;94529.00;5103709;28;20548;-76
2023/07/27 03:58:00;;;;;;;3.72;3.33;;;;;;;18.20;51.10;94537.63;5096978;28;20024;-76
2023/07/27 04:00:25;;;;;;;3.47;3.17;;;;;;;18.15;50.64;94552.25;5107463;27;20085;-77
2023/07/27 04:02:51;;;;;;;3.20;3.00;;;;;;;18.14;51.18;94553.50;5105148;28;20092;-77
2023/07/27 04:05:16;;;;;;;4.45;3.50;;;;;;;18.22;50.61;94559.38;5108096;28;20115;-77
2023/07/27 04:07:41;;;;;;;4.68;3.20;;;;;;;18.11;50.81;94557.28;5108358;28;20038;-77
2023/07/27 04:10:07;;;;;;;3.50;3.20;;;;;;;18.07;50.43;94542.84;5099730;28;20101;-76
2023/07/27 04:12:33;;;;;;;4.03;2.92;;;;;;;18.30;49.99;94580.69;5108406;28;20110;-80
2023/07/27 04:14:58;;;;;;;4.00;3.60;;;;;;;18.35;49.87;94587.56;5097028;28;20024;-76
2023/07/27 04:17:24;;;;;;;3.20;3.00;;;;;;;18.35;49.73;94583.97;5086848;28;20040;-76
2023/07/27 04:19:49;;;;;;;3.95;3.33;;;;;;;18.37;48.96;94592.63;5099012;28;20482;-75
2023/07/27 04:22:15;;;;;;;4.88;2.58;;;;;;;18.37;48.95;94596.16;5106063;28;20055;-76
2023/07/27 04:24:44;;;;;;;2.75;2.55;;;;;;;18.35;48.56;94583.97;5105535;28;20126;-78
2023/07/27 04:27:12;;;;;;;4.15;2.60;;;;;;;18.31;48.50;94578.66;5108379;28;20094;-76
2023/07/27 04:29:38;;;;;;;4.07;2.15;;;;;;;18.31;47.91;94607.25;5096547;28;20469;-76
2023/07/27 04:32:04;;;;;;;2.78;2.22;;;;;;;18.20;47.98;94609.94;5091192;28;20118;-75
2023/07/27 04:34:29;;;;;;;4.55;2.60;;;;;;;18.20;48.24;94615.50;5101819;27;20039;-76
2023/07/27 04:36:54;;;;;;;5.05;2.25;;;;;;;18.15;48.09;94621.03;5093291;28;20032;-74
2023/07/27 04:39:20;;;;;;;3.33;2.22;;;;;;;18.15;48.26;94619.00;5089473;28;20067;-75
2023/07/27 04:41:45;;;;;;;3.67;2.60;;;;;;;18.08;48.26;94621.50;5106315;28;20574;-76
2023/07/27 04:44:10;;;;;;;3.40;2.50;;;;;;;17.98;48.22;94634.81;5103596;28;20024;-76
2023/07/27 04:46:36;;;;;;;4.65;3.00;;;;;;;17.98;48.44;94641.13;5101804;28;20040;-76
2023/07/27 04:49:01;;;;;;;3.83;2.95;;;;;;;17.91;48.51;94632.47;5108823;28;20506;-77
2023/07/27 04:51:27;;;;;;;2.78;2.50;;;;;;;17.91;48.32;94638.78;5108029;28;20047;-76
2023/07/27 04:53:52;;;;;;;2.83;2.53;;;;;;;17.93;48.43;94641.84;5108646;28;20102;-75
2023/07/27 04:56:17;;;;;;;2.90;2.60;;;;;;;18.00;48.00;94641.38;5108025;28;20026;-75
2023/07/27 04:58:43;;;;;;;3.13;2.47;;;;;;;18.00;47.89;94646.94;5108628;28;20023;-76
2023/07/27 05:01:08;;;;;;;5.50;3.03;;;;;;;18.01;47.71;94633.81;5107905;28;20110;-76
2023/07/27 05:03:34;;;;;;;2.97;2.53;;;;;;;17.99;47.55;94641.88;5108107;28;20028;-75
2023/07/27 05:05:59;;;;;;;3.17;2.88;;;;;;;17.98;47.44;94645.91;5107919;28;20111;-75
2023/07/27 05:08:24;;;;;;;3.95;3.30;;;;;;;17.92;47.68;94636.78;5107702;28;20028;-75
2023/07/27 05:10:50;;;;;;;3.28;2.97;;;;;;;17.94;47.62;94662.06;5108536;28;20058;-75
2023/07/27 05:13:15;;;;;;;3.55;2.95;;;;;;;17.91;47.54;94654.72;5107378;28;20024;-76
2023/07/27 05:15:41;;;;;;;3.30;2.50;;;;;;;17.92;47.46;94656.22;5108105;28;20061;-78
2023/07/27 05:18:08;;;;;;;3.50;2.80;;;;;;;17.96;47.48;94654.75;5107604;28;20089;-75
2023/07/27 05:20:34;;;;;;;2.60;2.40;;;;;;;17.96;47.49;94651.22;5107936;28;20028;-75
2023/07/27 05:22:59;;;;;;;2.80;2.60;;;;;;;17.97;47.56;94655.53;5107528;28;20024;-76
2023/07/27 05:25:24;;;;;;;2.80;2.60;;;;;;;17.97;47.30;94666.66;5106350;28;20059;-76
2023/07/27 05:27:50;;;;;;;2.72;2.53;;;;;;;17.95;47.39;94666.34;5123833;27;20024;-76
2023/07/27 05:30:15;;;;;;;3.75;2.53;;;;;;;18.01;47.64;94656.06;5107126;27;20111;-76
2023/07/27 05:32:41;;;;;;;2.58;2.38;;;;;;;18.01;47.70;94672.75;5108138;28;20443;-76
2023/07/27 05:35:06;;;;;;;2.97;2.65;;;;;;;18.04;47.45;94671.75;5107363;28;20466;-75
2023/07/27 05:37:32;;;;;;;3.63;3.00;;;;;;;18.07;48.29;94668.00;5107862;28;20042;-76
2023/07/27 05:39:57;;;;;;;4.03;3.45;;;;;;;18.08;48.38;94657.66;5107883;28;20466;-75
2023/07/27 05:42:23;;;;;;;3.22;2.40;;;;;;;18.02;48.57;94665.94;5123168;27;20019;-76
2023/07/27 05:44:48;;;;;;;3.83;2.80;;;;;;;18.01;49.11;94658.84;5107308;28;20027;-76
2023/07/27 05:47:13;;;;;;;4.43;2.60;;;;;;;17.97;48.45;94669.44;5106872;28;20549;-76
2023/07/27 05:49:39;;;;;;;5.22;2.83;;;;;;;17.95;48.56;94680.25;5107981;28;20028;-76
2023/07/27 05:52:05;;;;;;;4.18;2.92;;;;;;;17.95;47.96;94666.34;5122481;27;20028;-76
2023/07/27 05:54:31;;;;;;;8.65;3.33;;;;;;;17.95;47.64;94694.16;5107113;28;20520;-76
2023/07/27 05:56:56;;;;;;;3.35;2.60;;;;;;;17.89;47.80;94687.78;5107171;28;20118;-77
2023/07/27 05:59:22;;;;;;;2.63;2.42;;;;;;;17.88;48.12;94691.84;5107512;28;20028;-77
2023/07/27 06:01:47;;;;;;;3.45;2.60;;;;;;;17.83;47.97;94690.50;5107241;28;20015;-77
2023/07/27 06:04:12;;;;;;;2.75;2.45;;;;;;;17.86;47.55;94697.13;5106833;28;20065;-76
2023/07/27 06:06:38;;;;;;;2.70;2.50;;;;;;;17.84;47.35;94696.88;5107149;28;20088;-76
2023/07/27 06:09:03;;;;;;;2.92;2.60;;;;;;;17.87;47.27;94681.97;5106550;28;20471;-77
2023/07/27 06:11:29;;;;;;;2.75;2.45;;;;;;;17.92;46.62;94684.81;5122739;27;20035;-76
2023/07/27 06:13:54;;;;;;;2.50;2.28;;;;;;;17.96;46.20;94690.91;5106658;28;20512;-77
2023/07/27 06:16:20;;;;;;;3.78;2.20;;;;;;;18.02;46.42;94682.63;5106274;28;20532;-76
2023/07/27 06:18:46;;;;;;;2.75;2.47;;;;;;;18.05;45.68;94687.94;5122715;27;20095;-76
2023/07/27 06:21:11;;;;;;;3.08;2.67;;;;;;;18.12;45.01;94685.97;5106570;28;20107;-77
2023/07/27 06:23:36;;;;;;;3.13;2.03;;;;;;;18.18;44.60;94686.78;5106931;28;20023;-77
2023/07/27 06:26:02;;;;;;;2.80;2.05;;;;;;;18.25;43.96;94683.59;5106507;28;20616;-77
2023/07/27 06:28:27;;;;;;;3.97;2.55;;;;;;;18.34;43.77;94690.97;5107234;28;20381;-78
2023/07/27 06:30:53;;;;;;;2.63;2.28;;;;;;;18.36;43.59;94686.47;5122529;27;20709;-77
2023/07/27 06:33:18;;;;;;;3.10;1.90;;;;;;;18.43;43.27;94688.78;5122264;27;20060;-78
2023/07/27 06:35:44;;;;;;;2.78;2.17;;;;;;;18.55;43.28;94689.63;5106646;28;20028;-78
2023/07/27 06:38:09;;;;;;;3.88;2.20;;;;;;;18.60;42.71;94702.06;5122112;27;20024;-78
2023/07/27 06:40:34;;;;;;;4.55;2.17;;;;;;;18.66;42.69;94697.31;5106990;28;20081;-77
2023/07/27 06:43:00;;;;;;;5.30;2.83;;;;;;;18.77;42.68;94695.38;5122620;27;20106;-78
2023/07/27 06:45:25;;;;;;;4.10;2.55;;;;;;;18.88;42.31;94693.94;5106315;28;20027;-78
2023/07/27 06:47:51;;;;;;;4.15;2.53;;;;;;;18.97;41.94;94686.13;5121954;28;20023;-78
2023/07/27 06:50:16;;;;;;;3.75;2.13;;;;;;;19.07;41.68;94687.44;5106671;28;20073;-78
2023/07/27 06:52:42;;;;;;;3.45;2.05;;;;;;;19.12;40.84;94687.97;5106278;28;20051;-77
2023/07/27 06:55:08;;;;;;;3.10;2.10;;;;;;;19.20;40.96;94675.84;5088116;28;20024;-76
2023/07/27 06:57:33;;;;;;;3.00;1.90;;;;;;;19.29;41.12;94666.53;5106252;28;20061;-77
2023/07/27 06:59:58;;;;;;;3.00;2.50;;;;;;;19.35;41.03;94675.69;5122765;28;20028;-78
2023/07/27 07:02:24;;;;;;;4.95;3.63;;;;;;;19.41;40.54;94672.91;5104763;28;20490;-76
2023/07/27 07:04:49;;;;;;;2.30;2.08;;;;;;;19.44;39.72;94666.31;5109802;28;20027;-76
2023/07/27 07:07:15;;;;;;;4.43;2.25;;;;;;;19.47;40.14;94671.66;5110004;28;20030;-76
2023/07/27 07:09:40;;;;;;;1.95;1.63;;;;;;;19.40;39.81;94676.97;5109696;28;20028;-77
2023/07/27 07:12:06;;;;;;;5.22;2.03;;;;;;;19.35;40.07;94684.78;5110277;28;20478;-79
2023/07/27 07:14:32;;;;;;;2.95;2.08;;;;;;;19.40;40.11;94671.38;5109661;28;20023;-78
2023/07/27 07:16:58;;;;;;;2.58;1.92;;;;;;;19.50;39.87;94676.25;5110176;28;20563;-78
2023/07/27 07:19:24;;;;;;;4.65;2.00;;;;;;;19.58;39.91;94662.56;5110156;27;20051;-77
2023/07/27 07:21:49;;;;;;;2.38;1.80;;;;;;;19.56;40.41;94673.47;5110414;28;20055;-76
2023/07/27 07:24:14;;;;;;;4.40;2.08;;;;;;;19.60;39.83;94679.59;5110015;28;20024;-77
2023/07/27 07:26:40;;;;;;;3.85;2.50;;;;;;;19.56;40.23;94668.66;5125622;27;20077;-77
2023/07/27 07:29:06;;;;;;;4.93;1.77;;;;;;;19.59;39.89;94683.63;5108542;28;20028;-76
2023/07/27 07:31:32;;;;;;;2.70;1.58;;;;;;;19.54;40.16;94676.00;5125186;27;20020;-76
2023/07/27 07:33:57;;;;;;;3.65;2.00;;;;;;;19.62;40.12;94666.69;5110283;28;20490;-78
2023/07/27 07:36:24;;;;;;;2.50;2.00;;;;;;;19.68;39.76;94674.31;5109748;28;20433;-77
2023/07/27 07:38:49;;;;;;;3.60;2.10;;;;;;;19.77;39.59;94683.19;5110044;28;20023;-77
2023/07/27 07:41:14;;;;;;;4.65;1.70;;;;;;;19.82;39.68;94679.66;5109887;28;20084;-77
2023/07/27 07:43:40;;;;;;;3.17;1.95;;;;;;;19.85;39.36;94680.69;5109906;28;20115;-77
2023/07/27 07:46:10;;;;;;;4.25;2.58;;;;;;;19.81;39.40;94689.28;5110595;28;20059;-77
2023/07/27 07:48:36;;;;;;;2.70;2.00;;;;;;;19.91;39.02;94670.28;5109419;28;20088;-78
2023/07/27 07:51:01;;;;;;;6.40;2.15;;;;;;;20.01;38.85;94676.38;5129960;27;20024;-78
2023/07/27 07:53:27;;;;;;;2.97;2.05;;;;;;;20.06;38.00;94672.84;5109845;28;20043;-77
2023/07/27 07:55:52;;;;;;;4.88;1.98;;;;;;;20.05;38.04;94674.88;5109642;28;20032;-76
2023/07/27 07:58:17;;;;;;;3.03;2.05;;;;;;;20.18;38.49;94677.16;5108074;28;20115;-77
2023/07/27 08:00:43;;;;;;;6.90;1.67;;;;;;;20.21;37.57;94680.97;5109756;28;20034;-77
2023/07/27 08:03:08;;;;;;;2.00;1.80;;;;;;;20.29;37.77;94665.25;5109421;28;20102;-76
2023/07/27 08:05:33;;;;;;;6.70;2.60;;;;;;;20.35;37.53;94672.34;5108592;27;20126;-77
2023/07/27 08:08:00;;;;;;;15.40;3.08;;;;;;;20.45;37.54;94675.66;5109696;28;20023;-77
2023/07/27 08:10:25;;;;;;;4.70;1.70;;;;;;;20.53;36.88;94685.09;5109650;28;20051;-77
2023/07/27 08:12:52;;;;;;;9.75;2.30;;;;;;;20.56;36.60;94683.28;5110146;28;20058;-77
2023/07/27 08:15:17;;;;;;;3.38;1.88;;;;;;;20.58;36.61;94680.75;5108915;28;20027;-78
2023/07/27 08:17:43;;;;;;;5.57;1.98;;;;;;;20.56;36.73;94677.72;5107753;28;20224;-77
2023/07/27 08:20:09;;;;;;;3.10;1.92;;;;;;;20.63;36.65;94668.81;5110028;28;20027;-76
2023/07/27 08:22:35;;;;;;;7.88;2.85;;;;;;;20.60;36.99;94675.44;5110018;28;20027;-76
2023/07/27 08:25:00;;;;;;;5.72;2.10;;;;;;;20.65;36.71;94671.88;5109877;27;20407;-76
2023/07/27 08:27:26;;;;;;;2.00;1.38;;;;;;;20.71;36.54;94686.59;5108823;28;20053;-77
2023/07/27 08:29:52;;;;;;;3.75;1.95;;;;;;;20.68;36.38;94670.84;5109096;28;20030;-78
2023/07/27 08:32:17;;;;;;;5.47;1.85;;;;;;;20.77;36.34;94681.75;5108329;28;20036;-77
2023/07/27 08:34:42;;;;;;;6.85;2.00;;;;;;;20.75;36.18;94678.69;5108710;28;20026;-77
2023/07/27 08:37:08;;;;;;;7.15;1.70;;;;;;;20.84;36.87;94674.88;5108946;28;20095;-78
2023/07/27 08:39:33;;;;;;;4.60;1.92;;;;;;;20.93;36.32;94680.19;5108152;28;20028;-78
2023/07/27 08:41:59;;;;;;;12.60;2.38;;;;;;;20.88;36.08;94675.38;5108851;28;20030;-77
2023/07/27 08:44:24;;;;;;;8.93;2.88;;;;;;;20.88;36.04;94690.13;5108118;28;20016;-77
2023/07/27 08:46:50;;;;;;;6.22;1.70;;;;;;;20.98;35.74;94684.25;5124587;27;20470;-76
2023/07/27 08:49:16;;;;;;;4.32;1.75;;;;;;;20.97;35.67;94691.09;5124213;27;20024;-77
2023/07/27 08:51:45;;;;;;;7.55;1.90;;;;;;;21.03;35.74;94692.59;5124258;27;20027;-76
2023/07/27 08:54:11;;;;;;;5.22;1.75;;;;;;;20.94;35.50;94692.91;5108604;28;20023;-77
2023/07/27 08:56:37;;;;;;;4.55;2.10;;;;;;;20.98;35.92;94673.06;5108121;28;20023;-78
2023/07/27 08:59:02;;;;;;;6.80;1.80;;;;;;;21.25;35.53;94691.78;5124428;27;20031;-79
2023/07/27 09:01:28;;;;;;;2.42;1.70;;;;;;;21.32;35.49;94705.25;5123467;27;20024;-78
2023/07/27 09:03:53;;;;;;;4.00;1.67;;;;;;;21.39;35.38;94701.97;5108113;28;20103;-78
2023/07/27 09:06:43;;;;;;;8.55;1.80;;;;;;;21.37;35.90;94696.09;5107522;28;20051;-78
2023/07/27 09:09:13;;;;;;;4.57;1.73;;;;;;;21.43;36.24;94693.28;5106734;28;20377;-78
2023/07/27 09:11:39;;;;;;;2.40;1.58;;;;;;;21.59;35.94;94666.53;5124111;27;20031;-80
2023/07/27 09:14:04;;;;;;;19.33;2.88;;;;;;;21.70;35.05;94703.59;5107791;28;20088;-78
2023/07/27 09:16:34;;;;;;;3.35;1.50;;;;;;;21.68;34.00;94692.16;5107475;28;20039;-76
2023/07/27 09:19:01;;;;;;;4.70;1.90;;;;;;;21.56;33.89;94682.28;5107504;28;20085;-79
2023/07/27 09:21:27;;;;;;;3.17;1.58;;;;;;;21.74;34.32;94692.91;5108579;28;20024;-80
2023/07/27 09:23:52;;;;;;;6.60;1.85;;;;;;;21.92;34.92;94685.94;5107606;28;20034;-78
2023/07/27 09:26:26;;;;;;;6.53;1.73;;;;;;;21.99;35.49;94687.41;5107403;28;20037;-77
2023/07/27 09:28:53;;;;;;;5.00;2.15;;;;;;;22.11;34.94;94702.13;5108221;28;20028;-77
2023/07/27 09:31:19;;;;;;;3.00;1.73;;;;;;;22.13;34.89;94691.91;5107291;27;20031;-78
2023/07/27 09:33:44;;;;;;;3.08;1.80;;;;;;;22.28;34.86;94694.38;5108132;28;20035;-78
2023/07/27 09:36:10;;;;;;;5.50;2.35;;;;;;;22.40;34.39;94692.25;5107996;28;20106;-78
2023/07/27 09:38:36;;;;;;;4.45;1.60;;;;;;;22.44;34.12;94701.91;5107461;28;20040;-79
2023/07/27 09:41:08;;;;;;;10.60;3.25;;;;;;;22.55;33.40;94706.66;5107429;28;20030;-77
2023/07/27 09:43:38;;;;;;;9.87;1.83;;;;;;;22.71;32.48;94716.19;5123426;27;20050;-78
2023/07/27 09:46:04;;;;;;;3.90;1.80;;;;;;;22.57;31.97;94717.34;5107486;28;20030;-78
2023/07/27 09:48:30;;;;;;;3.78;1.52;;;;;;;22.55;32.52;94709.47;5105716;28;20028;-77
2023/07/27 09:50:57;;;;;;;11.02;2.53;;;;;;;22.61;32.77;94698.97;5123517;27;20042;-77
2023/07/27 09:53:23;;;;;;;4.55;1.60;;;;;;;22.67;32.75;94704.53;5112257;28;20118;-76
2023/07/27 09:55:50;;;;;;;11.23;2.03;;;;;;;22.74;32.21;94709.56;5106465;28;20097;-77
2023/07/27 09:58:15;;;;;;;7.07;1.67;;;;;;;22.79;32.28;94715.09;5122622;27;20038;-78
2023/07/27 10:00:41;;;;;;;3.72;1.50;;;;;;;23.03;31.47;94694.03;5122922;27;20032;-77
2023/07/27 10:03:07;;;;;;;2.90;1.50;;;;;;;23.00;31.28;94701.44;5122935;27;20032;-77
2023/07/27 10:05:37;;;;;;;4.85;1.58;;;;;;;23.12;31.16;94704.13;5105214;28;20027;-78
2023/07/27 10:08:03;;;;;;;4.78;1.67;;;;;;;23.31;31.22;94691.69;5122992;27;20370;-77
2023/07/27 10:10:32;;;;;;;3.92;1.83;;;;;;;23.45;30.96;94697.38;5106607;28;20039;-77
2023/07/27 10:12:58;;;;;;;4.65;2.05;;;;;;;23.69;30.68;94699.44;5108052;28;20046;-78
2023/07/27 10:15:28;;;;;;;5.63;2.53;;;;;;;23.61;29.69;94690.06;5123733;27;20397;-79
2023/07/27 10:17:58;;;;;;;2.00;1.80;;;;;;;23.78;29.85;94688.59;5108322;28;20043;-78
2023/07/27 10:20:28;;;;;;;6.55;1.73;;;;;;;23.90;29.42;94703.22;5106267;28;20031;-82
2023/07/27 10:23:10;;;;;;;9.20;2.65;;;;;;;23.94;29.22;94697.31;5123123;27;20504;-82
2023/07/27 10:25:56;;;;;;;4.53;2.47;;;;;;;24.17;29.16;94700.56;5122809;27;20059;-81
2023/07/27 10:28:32;;;;;;;3.40;1.40;;;;;;;24.06;29.33;94693.81;5107171;28;20474;-80
2023/07/27 10:31:20;;;;;;;4.85;1.60;;;;;;;24.14;29.16;94685.53;5107296;28;20027;-80
2023/07/27 10:33:46;;;;;;;4.35;1.90;;;;;;;24.25;29.59;94676.19;5106888;28;20032;-79
2023/07/27 10:36:12;;;;;;;9.88;1.70;;;;;;;24.28;28.43;94677.94;5106859;28;20055;-81
2023/07/27 10:38:38;;;;;;;3.25;1.70;;;;;;;24.34;28.85;94673.00;5104410;28;20055;-81
2023/07/27 10:41:14;;;;;;;8.77;1.77;;;;;;;24.42;28.42;94673.91;5105299;28;20024;-81
2023/07/27 10:44:09;;;;;;;3.50;1.90;;;;;;;24.64;28.37;94676.38;5105438;28;20444;-80
2023/07/27 10:46:38;;;;;;;6.25;1.85;;;;;;;24.71;28.13;94669.34;5101478;28;20506;-80
2023/07/27 10:49:19;;;;;;;3.22;1.70;;;;;;;25.03;27.49;94688.22;5105772;28;20020;-81
2023/07/27 10:51:47;;;;;;;2.78;1.83;;;;;;;24.99;27.87;94663.25;5106827;28;20050;-78
2023/07/27 10:54:14;;;;;;;3.65;1.75;;;;;;;24.97;28.57;94663.03;5121780;28;20039;-84
2023/07/27 10:56:43;;;;;;;2.88;1.85;;;;;;;25.13;28.20;94658.44;5105426;28;20035;-79
2023/07/27 10:59:13;;;;;;;6.80;1.77;;;;;;;25.02;27.86;94675.47;5105611;28;20051;-84
2023/07/27 11:01:39;;;;;;;4.30;2.05;;;;;;;25.16;27.68;94677.03;5129396;28;20089;-85
2023/07/27 11:04:05;;;;;;;5.10;2.20;;;;;;;25.26;27.65;94668.91;5125339;28;20028;-84
2023/07/27 11:06:40;;;;;;;4.35;1.80;;;;;;;25.43;27.36;94658.09;5108941;28;20024;-87
2023/07/27 11:09:14;;;;;;;6.82;2.83;;;;;;;25.38;28.02;94644.91;5106942;28;20119;-79
2023/07/27 11:11:39;;;;;;;5.32;2.65;;;;;;;25.60;27.88;94652.13;5105772;28;20067;-78
2023/07/27 11:14:06;;;;;;;3.90;2.45;;;;;;;25.57;27.50;94658.81;5106384;28;20158;-82
2023/07/27 11:16:38;;;;;;;3.95;2.13;;;;;;;25.66;27.46;94664.78;5122789;28;20055;-81
2023/07/27 11:19:09;;;;;;;10.60;2.65;;;;;;;25.63;27.46;94632.09;5123628;28;20039;-82
2023/07/27 11:21:39;;;;;;;6.57;2.35;;;;;;;25.68;27.16;94655.78;5092445;28;20023;-80
2023/07/27 11:24:06;;;;;;;5.18;1.80;;;;;;;25.63;27.19;94648.22;5110380;28;20023;-82
2023/07/27 11:26:32;;;;;;;21.40;3.65;;;;;;;25.66;27.39;94666.84;5113185;28;20465;-79
2023/07/27 11:29:00;;;;;;;3.13;1.98;;;;;;;25.67;27.53;94669.09;5111054;28;20036;-77
2023/07/27 11:31:26;;;;;;;5.32;2.22;;;;;;;25.69;27.12;94652.44;5110490;28;20114;-84
2023/07/27 11:33:56;;;;;;;2.53;1.60;;;;;;;25.78;27.60;94668.16;5104967;28;20027;-80